sensor_id;sensor_type;location;lat;lon;timestamp;temperature;humidity
31207;DHT22;17834;52.992;8.856;2024-01-15T09:42:14;2.60;99.90
31207;DHT22;17834;52.992;8.856;2024-01-15T09:44:40;2.70;99.90
31207;DHT22;17834;52.992;8.856;2024-01-15T09:47:06;2.90;99.90
31207;DHT22;17834;52.992;8.856;2024-01-15T09:49:32;3.00;99.90
31207;DHT22;17834;52.992;8.856;2024-01-15T09:51:58;3.10;99.90
31207;DHT22;17834;52.992;8.856;2024-01-15T09:54:24;3.20;99.90
31207;DHT22;17834;52.992;8.856;2024-01-15T09:56:49;3.10;99.90
31207;DHT22;17834;52.992;8.856;2024-01-15T09:59:16;3.00;99.90
31207;DHT22;17834;52.992;8.856;2024-01-15T10:01:44;3.00;99.90
31207;DHT22;17834;52.992;8.856;2024-01-15T10:04:11;3.00;99.90
31207;DHT22;17834;52.992;8.856;2024-01-15T10:06:38;3.00;99.90
31207;DHT22;17834;52.992;8.856;2024-01-15T10:09:05;3.10;99.90
31207;DHT22;17834;52.992;8.856;2024-01-15T10:11:31;3.20;99.90
31207;DHT22;17834;52.992;8.856;2024-01-15T10:13:57;3.20;99.90
31207;DHT22;17834;52.992;8.856;2024-01-15T10:16:23;3.20;99.90
31207;DHT22;17834;52.992;8.856;2024-01-15T10:18:49;3.20;99.90
31207;DHT22;17834;52.992;8.856;2024-01-15T10:21:15;3.20;99.90
31207;DHT22;17834;52.992;8.856;2024-01-15T10:23:41;3.20;99.90
31207;DHT22;17834;52.992;8.856;2024-01-15T10:26:07;3.30;99.90
31207;DHT22;17834;52.992;8.856;2024-01-15T10:28:32;3.30;99.90
31207;DHT22;17834;52.992;8.856;2024-01-15T10:30:59;3.30;99.90
31207;DHT22;17834;52.992;8.856;2024-01-15T10:33:25;3.30;99.90
31207;DHT22;17834;52.992;8.856;2024-01-15T10:35:57;3.30;99.90
31207;DHT22;17834;52.992;8.856;2024-01-15T10:38:23;3.20;99.90
31207;DHT22;17834;52.992;8.856;2024-01-15T10:40:53;3.20;99.90
31207;DHT22;17834;52.992;8.856;2024-01-15T10:43:19;3.10;99.90
31207;DHT22;17834;52.992;8.856;2024-01-15T10:45:51;3.10;99.90
31207;DHT22;17834;52.992;8.856;2024-01-15T10:48:18;3.10;99.90
31207;DHT22;17834;52.992;8.856;2024-01-15T10:50:45;3.10;99.90
31207;DHT22;17834;52.992;8.856;2024-01-15T10:53:12;3.10;99.90
31207;DHT22;17834;52.992;8.856;2024-01-15T10:55:38;3.10;99.90
31207;DHT22;17834;52.992;8.856;2024-01-15T10:58:05;3.10;99.90
31207;DHT22;17834;52.992;8.856;2024-01-15T11:00:31;3.00;99.90
31207;DHT22;17834;52.992;8.856;2024-01-15T11:02:56;3.00;99.90
31207;DHT22;17834;52.992;8.856;2024-01-15T11:05:22;2.90;99.90
31207;DHT22;17834;52.992;8.856;2024-01-15T11:07:49;3.00;99.90
31207;DHT22;17834;52.992;8.856;2024-01-15T11:11:08;3.00;99.90
31207;DHT22;17834;52.992;8.856;2024-01-15T11:16:08;2.90;99.90
31207;DHT22;17834;52.992;8.856;2024-01-15T11:19:01;2.90;99.90
31207;DHT22;17834;52.992;8.856;2024-01-15T11:21:27;2.90;99.90
31207;DHT22;17834;52.992;8.856;2024-01-15T11:23:56;3.00;99.90
31207;DHT22;17834;52.992;8.856;2024-01-15T11:34:20;3.30;99.90
31207;DHT22;17834;52.992;8.856;2024-01-15T11:41:54;3.20;99.90
31207;DHT22;17834;52.992;8.856;2024-01-15T11:44:20;3.20;99.90
31207;DHT22;17834;52.992;8.856;2024-01-15T11:47:05;3.20;99.90
31207;DHT22;17834;52.992;8.856;2024-01-15T11:52:17;3.20;99.90
31207;DHT22;17834;52.992;8.856;2024-01-15T11:54:56;3.20;99.90
31207;DHT22;17834;52.992;8.856;2024-01-15T12:00:06;3.30;99.90
31207;DHT22;17834;52.992;8.856;2024-01-15T12:02:33;3.30;99.90
31207;DHT22;17834;52.992;8.856;2024-01-15T12:04:59;3.20;99.90
31207;DHT22;17834;52.992;8.856;2024-01-15T12:07:24;3.20;99.90
31207;DHT22;17834;52.992;8.856;2024-01-15T12:09:50;3.30;99.90
31207;DHT22;17834;52.992;8.856;2024-01-15T12:12:32;3.30;99.90
31207;DHT22;17834;52.992;8.856;2024-01-15T12:15:00;3.30;99.90
31207;DHT22;17834;52.992;8.856;2024-01-15T12:17:26;3.30;99.90
31207;DHT22;17834;52.992;8.856;2024-01-15T12:19:52;3.40;99.90
31207;DHT22;17834;52.992;8.856;2024-01-15T12:22:17;3.40;99.90
31207;DHT22;17834;52.992;8.856;2024-01-15T12:24:43;3.30;99.90
31207;DHT22;17834;52.992;8.856;2024-01-15T12:27:09;3.30;99.90
31207;DHT22;17834;52.992;8.856;2024-01-15T12:29:34;3.30;99.90
31207;DHT22;17834;52.992;8.856;2024-01-15T12:32:00;3.30;99.90
31207;DHT22;17834;52.992;8.856;2024-01-15T12:34:29;3.20;99.90
31207;DHT22;17834;52.992;8.856;2024-01-15T12:36:57;3.10;99.90
31207;DHT22;17834;52.992;8.856;2024-01-15T12:39:24;3.10;99.90
31207;DHT22;17834;52.992;8.856;2024-01-15T12:41:49;3.10;99.90
31207;DHT22;17834;52.992;8.856;2024-01-15T12:44:14;3.10;99.90
31207;DHT22;17834;52.992;8.856;2024-01-15T12:46:40;3.10;99.90
31207;DHT22;17834;52.992;8.856;2024-01-15T12:49:08;3.20;99.90
31207;DHT22;17834;52.992;8.856;2024-01-15T12:51:34;3.20;99.90
31207;DHT22;17834;52.992;8.856;2024-01-15T12:54:00;3.30;99.90
31207;DHT22;17834;52.992;8.856;2024-01-15T12:56:25;3.40;99.90
31207;DHT22;17834;52.992;8.856;2024-01-15T12:58:51;3.50;99.90
31207;DHT22;17834;52.992;8.856;2024-01-15T13:01:16;3.40;99.90
31207;DHT22;17834;52.992;8.856;2024-01-15T13:03:42;3.40;99.90
31207;DHT22;17834;52.992;8.856;2024-01-15T13:06:07;3.40;99.90
31207;DHT22;17834;52.992;8.856;2024-01-15T13:08:33;3.40;99.90
31207;DHT22;17834;52.992;8.856;2024-01-15T13:10:58;3.30;99.90
31207;DHT22;17834;52.992;8.856;2024-01-15T13:13:24;3.30;99.90
31207;DHT22;17834;52.992;8.856;2024-01-15T13:15:49;3.20;99.90
31207;DHT22;17834;52.992;8.856;2024-01-15T13:18:15;3.10;99.90
31207;DHT22;17834;52.992;8.856;2024-01-15T13:20:41;3.00;99.90
31207;DHT22;17834;52.992;8.856;2024-01-15T13:23:07;3.00;99.90
31207;DHT22;17834;52.992;8.856;2024-01-15T13:25:32;2.90;99.90
31207;DHT22;17834;52.992;8.856;2024-01-15T13:28:01;2.80;99.90
31207;DHT22;17834;52.992;8.856;2024-01-15T13:30:27;2.70;99.90
31207;DHT22;17834;52.992;8.856;2024-01-15T13:32:53;2.70;99.90
31207;DHT22;17834;52.992;8.856;2024-01-15T13:35:19;2.70;99.90
31207;DHT22;17834;52.992;8.856;2024-01-15T13:37:44;2.70;99.90
31207;DHT22;17834;52.992;8.856;2024-01-15T13:40:10;2.80;99.90
31207;DHT22;17834;52.992;8.856;2024-01-15T13:42:41;2.80;99.90
31207;DHT22;17834;52.992;8.856;2024-01-15T13:45:07;2.80;99.90
31207;DHT22;17834;52.992;8.856;2024-01-15T13:47:33;2.70;99.90
31207;DHT22;17834;52.992;8.856;2024-01-15T13:49:59;2.70;99.90
31207;DHT22;17834;52.992;8.856;2024-01-15T13:52:24;2.60;99.90
31207;DHT22;17834;52.992;8.856;2024-01-15T13:54:50;2.60;99.90
31207;DHT22;17834;52.992;8.856;2024-01-15T13:57:16;2.40;99.90
31207;DHT22;17834;52.992;8.856;2024-01-15T13:59:42;2.40;99.90
31207;DHT22;17834;52.992;8.856;2024-01-15T14:02:07;2.30;99.90
31207;DHT22;17834;52.992;8.856;2024-01-15T14:04:33;2.20;99.90
31207;DHT22;17834;52.992;8.856;2024-01-15T14:06:58;2.20;99.90
31207;DHT22;17834;52.992;8.856;2024-01-15T14:09:24;2.20;99.90
31207;DHT22;17834;52.992;8.856;2024-01-15T14:11:50;2.20;99.90
31207;DHT22;17834;52.992;8.856;2024-01-15T14:14:16;2.20;99.90
31207;DHT22;17834;52.992;8.856;2024-01-15T14:16:42;2.20;99.90
31207;DHT22;17834;52.992;8.856;2024-01-15T14:19:07;2.20;99.90
31207;DHT22;17834;52.992;8.856;2024-01-15T14:21:35;2.20;99.90
31207;DHT22;17834;52.992;8.856;2024-01-15T14:24:00;2.30;99.90
31207;DHT22;17834;52.992;8.856;2024-01-15T14:26:26;2.30;99.90
31207;DHT22;17834;52.992;8.856;2024-01-15T14:28:51;2.30;99.90
31207;DHT22;17834;52.992;8.856;2024-01-15T14:31:17;2.30;99.90
31207;DHT22;17834;52.992;8.856;2024-01-15T14:33:43;2.20;99.90
31207;DHT22;17834;52.992;8.856;2024-01-15T14:36:08;2.20;99.90
31207;DHT22;17834;52.992;8.856;2024-01-15T14:38:34;2.10;99.90
31207;DHT22;17834;52.992;8.856;2024-01-15T14:41:00;2.00;99.90
31207;DHT22;17834;52.992;8.856;2024-01-15T14:43:26;2.00;99.90
31207;DHT22;17834;52.992;8.856;2024-01-15T14:45:51;2.00;99.90
31207;DHT22;17834;52.992;8.856;2024-01-15T14:48:17;1.90;99.90
31207;DHT22;17834;52.992;8.856;2024-01-15T14:50:42;1.90;99.90
31207;DHT22;17834;52.992;8.856;2024-01-15T14:53:08;1.90;99.90
31207;DHT22;17834;52.992;8.856;2024-01-15T14:55:33;1.80;99.90
31207;DHT22;17834;52.992;8.856;2024-01-15T14:57:59;1.80;99.90
31207;DHT22;17834;52.992;8.856;2024-01-15T15:00:24;1.80;99.90
31207;DHT22;17834;52.992;8.856;2024-01-15T15:02:50;1.80;99.90
31207;DHT22;17834;52.992;8.856;2024-01-15T15:05:15;1.80;99.90
31207;DHT22;17834;52.992;8.856;2024-01-15T15:07:42;1.80;99.90
31207;DHT22;17834;52.992;8.856;2024-01-15T15:10:08;1.70;99.90
31207;DHT22;17834;52.992;8.856;2024-01-15T15:12:34;1.70;99.90
31207;DHT22;17834;52.992;8.856;2024-01-15T15:15:00;1.70;99.90
31207;DHT22;17834;52.992;8.856;2024-01-15T15:17:26;1.70;99.90
31207;DHT22;17834;52.992;8.856;2024-01-15T15:19:51;1.70;99.90
31207;DHT22;17834;52.992;8.856;2024-01-15T15:22:19;1.70;99.90
31207;DHT22;17834;52.992;8.856;2024-01-15T15:24:45;1.70;99.90
31207;DHT22;17834;52.992;8.856;2024-01-15T15:27:11;1.70;99.90
31207;DHT22;17834;52.992;8.856;2024-01-15T15:29:36;1.70;99.90
31207;DHT22;17834;52.992;8.856;2024-01-15T15:32:02;1.60;99.90
31207;DHT22;17834;52.992;8.856;2024-01-15T15:34:28;1.60;99.90
31207;DHT22;17834;52.992;8.856;2024-01-15T15:36:54;1.60;99.90
31207;DHT22;17834;52.992;8.856;2024-01-15T15:39:19;1.60;99.90
31207;DHT22;17834;52.992;8.856;2024-01-15T15:41:45;1.60;99.90
31207;DHT22;17834;52.992;8.856;2024-01-15T15:44:11;1.60;99.90
31207;DHT22;17834;52.992;8.856;2024-01-15T15:46:38;1.70;99.90
31207;DHT22;17834;52.992;8.856;2024-01-15T15:49:04;1.70;99.90
31207;DHT22;17834;52.992;8.856;2024-01-15T15:51:32;1.70;99.90
31207;DHT22;17834;52.992;8.856;2024-01-15T15:53:58;1.80;99.90
31207;DHT22;17834;52.992;8.856;2024-01-15T15:56:23;1.80;99.90
31207;DHT22;17834;52.992;8.856;2024-01-15T15:58:51;1.80;99.90
31207;DHT22;17834;52.992;8.856;2024-01-15T16:01:16;1.70;99.90
31207;DHT22;17834;52.992;8.856;2024-01-15T16:03:42;1.80;99.90
31207;DHT22;17834;52.992;8.856;2024-01-15T16:06:07;1.80;99.90
31207;DHT22;17834;52.992;8.856;2024-01-15T16:08:33;1.70;99.90
31207;DHT22;17834;52.992;8.856;2024-01-15T16:10:59;1.60;99.90
31207;DHT22;17834;52.992;8.856;2024-01-15T16:13:24;1.40;99.90
31207;DHT22;17834;52.992;8.856;2024-01-15T16:15:50;1.40;99.90
31207;DHT22;17834;52.992;8.856;2024-01-15T16:18:15;1.40;99.90
31207;DHT22;17834;52.992;8.856;2024-01-15T16:20:41;1.40;99.90
31207;DHT22;17834;52.992;8.856;2024-01-15T16:23:07;1.40;99.90
31207;DHT22;17834;52.992;8.856;2024-01-15T16:25:33;1.30;99.90
31207;DHT22;17834;52.992;8.856;2024-01-15T16:28:05;1.30;99.90
31207;DHT22;17834;52.992;8.856;2024-01-15T16:30:31;1.20;99.90
31207;DHT22;17834;52.992;8.856;2024-01-15T16:32:57;1.30;99.90
31207;DHT22;17834;52.992;8.856;2024-01-15T16:35:22;1.50;99.90
31207;DHT22;17834;52.992;8.856;2024-01-15T16:37:48;1.70;99.90
31207;DHT22;17834;52.992;8.856;2024-01-15T16:40:13;1.90;99.90
31207;DHT22;17834;52.992;8.856;2024-01-15T16:42:39;1.80;99.90
31207;DHT22;17834;52.992;8.856;2024-01-15T16:45:05;1.80;99.90
31207;DHT22;17834;52.992;8.856;2024-01-15T16:47:31;1.80;99.90
31207;DHT22;17834;52.992;8.856;2024-01-15T16:49:57;1.70;99.90
31207;DHT22;17834;52.992;8.856;2024-01-15T16:52:22;1.70;99.90
31207;DHT22;17834;52.992;8.856;2024-01-15T16:54:48;1.60;99.90
31207;DHT22;17834;52.992;8.856;2024-01-15T16:57:13;1.50;99.90
31207;DHT22;17834;52.992;8.856;2024-01-15T16:59:39;1.50;99.90
31207;DHT22;17834;52.992;8.856;2024-01-15T17:02:05;1.40;99.90
31207;DHT22;17834;52.992;8.856;2024-01-15T17:04:30;1.30;99.90
31207;DHT22;17834;52.992;8.856;2024-01-15T17:06:56;1.20;99.90
31207;DHT22;17834;52.992;8.856;2024-01-15T17:09:21;1.10;99.90
31207;DHT22;17834;52.992;8.856;2024-01-15T17:11:47;1.00;99.90
31207;DHT22;17834;52.992;8.856;2024-01-15T17:14:12;1.00;99.90
31207;DHT22;17834;52.992;8.856;2024-01-15T17:16:38;1.00;99.90
31207;DHT22;17834;52.992;8.856;2024-01-15T17:19:03;1.00;99.90
31207;DHT22;17834;52.992;8.856;2024-01-15T17:21:30;1.00;99.90
31207;DHT22;17834;52.992;8.856;2024-01-15T17:23:55;1.10;99.90
31207;DHT22;17834;52.992;8.856;2024-01-15T17:26:21;1.10;99.90
31207;DHT22;17834;52.992;8.856;2024-01-15T17:28:46;1.10;99.90
31207;DHT22;17834;52.992;8.856;2024-01-15T17:31:12;1.10;99.90
31207;DHT22;17834;52.992;8.856;2024-01-15T17:33:37;1.20;99.90
31207;DHT22;17834;52.992;8.856;2024-01-15T17:36:03;1.20;99.90
31207;DHT22;17834;52.992;8.856;2024-01-15T17:38:30;1.20;99.90
31207;DHT22;17834;52.992;8.856;2024-01-15T17:40:56;1.20;99.90
31207;DHT22;17834;52.992;8.856;2024-01-15T17:43:23;1.20;99.90
31207;DHT22;17834;52.992;8.856;2024-01-15T17:45:48;1.20;99.90
31207;DHT22;17834;52.992;8.856;2024-01-15T17:48:13;1.20;99.90
31207;DHT22;17834;52.992;8.856;2024-01-15T17:50:39;1.30;99.90
31207;DHT22;17834;52.992;8.856;2024-01-15T17:53:05;1.30;99.90
31207;DHT22;17834;52.992;8.856;2024-01-15T17:55:31;1.30;99.90
31207;DHT22;17834;52.992;8.856;2024-01-15T17:57:56;1.30;99.90
31207;DHT22;17834;52.992;8.856;2024-01-15T18:00:22;1.30;99.90
31207;DHT22;17834;52.992;8.856;2024-01-15T18:02:48;1.30;99.90
31207;DHT22;17834;52.992;8.856;2024-01-15T18:05:15;1.40;99.90
31207;DHT22;17834;52.992;8.856;2024-01-15T18:07:40;1.40;99.90
31207;DHT22;17834;52.992;8.856;2024-01-15T18:10:07;1.40;99.90
31207;DHT22;17834;52.992;8.856;2024-01-15T18:12:33;1.40;99.90
31207;DHT22;17834;52.992;8.856;2024-01-15T18:15:00;1.40;99.90
31207;DHT22;17834;52.992;8.856;2024-01-15T18:17:25;1.40;99.90
31207;DHT22;17834;52.992;8.856;2024-01-15T18:19:52;1.40;99.90
31207;DHT22;17834;52.992;8.856;2024-01-15T18:22:17;1.40;99.90
31207;DHT22;17834;52.992;8.856;2024-01-15T18:24:44;1.40;99.90
31207;DHT22;17834;52.992;8.856;2024-01-15T18:27:09;1.40;99.90
31207;DHT22;17834;52.992;8.856;2024-01-15T18:29:35;1.40;99.90
31207;DHT22;17834;52.992;8.856;2024-01-15T18:32:00;1.40;99.90
31207;DHT22;17834;52.992;8.856;2024-01-15T18:34:26;1.40;99.90
31207;DHT22;17834;52.992;8.856;2024-01-15T18:36:52;1.30;99.90
31207;DHT22;17834;52.992;8.856;2024-01-15T18:39:17;1.30;99.90
31207;DHT22;17834;52.992;8.856;2024-01-15T18:41:44;1.30;99.90
31207;DHT22;17834;52.992;8.856;2024-01-15T18:44:10;1.30;99.90
31207;DHT22;17834;52.992;8.856;2024-01-15T18:46:36;1.30;99.90
31207;DHT22;17834;52.992;8.856;2024-01-15T18:49:05;1.30;99.90
31207;DHT22;17834;52.992;8.856;2024-01-15T18:51:31;1.40;99.90
31207;DHT22;17834;52.992;8.856;2024-01-15T18:53:56;1.40;99.90
31207;DHT22;17834;52.992;8.856;2024-01-15T18:56:22;1.40;99.90
31207;DHT22;17834;52.992;8.856;2024-01-15T18:58:48;1.40;99.90
31207;DHT22;17834;52.992;8.856;2024-01-15T19:01:25;1.40;99.90
31207;DHT22;17834;52.992;8.856;2024-01-15T19:03:51;1.40;99.90
31207;DHT22;17834;52.992;8.856;2024-01-15T19:06:16;1.40;99.90
31207;DHT22;17834;52.992;8.856;2024-01-15T19:08:42;1.40;99.90
31207;DHT22;17834;52.992;8.856;2024-01-15T19:11:07;1.30;99.90
31207;DHT22;17834;52.992;8.856;2024-01-15T19:13:34;1.40;99.90
31207;DHT22;17834;52.992;8.856;2024-01-15T19:16:00;1.40;99.90
31207;DHT22;17834;52.992;8.856;2024-01-15T19:18:26;1.40;99.90
31207;DHT22;17834;52.992;8.856;2024-01-15T19:20:52;1.40;99.90
31207;DHT22;17834;52.992;8.856;2024-01-15T19:23:18;1.50;99.90
31207;DHT22;17834;52.992;8.856;2024-01-15T19:25:43;1.50;99.90
31207;DHT22;17834;52.992;8.856;2024-01-15T19:28:09;1.50;99.90
31207;DHT22;17834;52.992;8.856;2024-01-15T19:30:35;1.40;99.90
31207;DHT22;17834;52.992;8.856;2024-01-15T19:33:00;1.40;99.90
31207;DHT22;17834;52.992;8.856;2024-01-15T19:35:26;1.30;99.90
31207;DHT22;17834;52.992;8.856;2024-01-15T19:37:51;1.20;99.90
31207;DHT22;17834;52.992;8.856;2024-01-15T19:40:17;1.10;99.90
31207;DHT22;17834;52.992;8.856;2024-01-15T19:42:43;1.10;99.90
31207;DHT22;17834;52.992;8.856;2024-01-15T19:45:08;1.10;99.90
31207;DHT22;17834;52.992;8.856;2024-01-15T19:47:34;1.10;99.90
31207;DHT22;17834;52.992;8.856;2024-01-15T19:49:59;1.10;99.90
31207;DHT22;17834;52.992;8.856;2024-01-15T19:52:25;1.10;99.90
31207;DHT22;17834;52.992;8.856;2024-01-15T19:54:51;1.10;99.90
31207;DHT22;17834;52.992;8.856;2024-01-15T19:57:16;1.00;99.90
31207;DHT22;17834;52.992;8.856;2024-01-15T19:59:42;1.00;99.90
31207;DHT22;17834;52.992;8.856;2024-01-15T20:02:07;1.00;99.90
31207;DHT22;17834;52.992;8.856;2024-01-15T20:04:33;1.00;99.90
31207;DHT22;17834;52.992;8.856;2024-01-15T20:06:58;1.00;99.90
31207;DHT22;17834;52.992;8.856;2024-01-15T20:09:24;1.10;99.90
31207;DHT22;17834;52.992;8.856;2024-01-15T20:11:49;1.10;99.90
31207;DHT22;17834;52.992;8.856;2024-01-15T20:14:16;1.10;99.90
31207;DHT22;17834;52.992;8.856;2024-01-15T20:16:42;1.10;99.90
31207;DHT22;17834;52.992;8.856;2024-01-15T20:19:07;1.10;99.90
31207;DHT22;17834;52.992;8.856;2024-01-15T20:21:33;1.10;99.90
31207;DHT22;17834;52.992;8.856;2024-01-15T20:24:01;1.10;99.90
31207;DHT22;17834;52.992;8.856;2024-01-15T20:26:26;1.10;99.90
31207;DHT22;17834;52.992;8.856;2024-01-15T20:28:52;1.10;99.90
31207;DHT22;17834;52.992;8.856;2024-01-15T20:31:18;1.10;99.90
31207;DHT22;17834;52.992;8.856;2024-01-15T20:33:43;1.00;99.90
31207;DHT22;17834;52.992;8.856;2024-01-15T20:36:09;1.00;99.90
31207;DHT22;17834;52.992;8.856;2024-01-15T20:38:35;1.00;99.90
31207;DHT22;17834;52.992;8.856;2024-01-15T20:41:07;1.00;99.90
31207;DHT22;17834;52.992;8.856;2024-01-15T20:43:33;0.90;99.90
31207;DHT22;17834;52.992;8.856;2024-01-15T20:46:01;0.90;99.90
31207;DHT22;17834;52.992;8.856;2024-01-15T20:48:30;0.90;99.90
31207;DHT22;17834;52.992;8.856;2024-01-15T20:50:55;0.90;99.90
31207;DHT22;17834;52.992;8.856;2024-01-15T20:53:23;0.80;99.90
31207;DHT22;17834;52.992;8.856;2024-01-15T20:55:48;0.80;99.90
31207;DHT22;17834;52.992;8.856;2024-01-15T20:58:21;0.70;99.90
31207;DHT22;17834;52.992;8.856;2024-01-15T21:00:46;0.70;99.90
31207;DHT22;17834;52.992;8.856;2024-01-15T21:03:12;0.60;99.90
31207;DHT22;17834;52.992;8.856;2024-01-15T21:05:37;0.60;99.90
31207;DHT22;17834;52.992;8.856;2024-01-15T21:08:03;0.60;99.90
31207;DHT22;17834;52.992;8.856;2024-01-15T21:10:28;0.60;99.90
31207;DHT22;17834;52.992;8.856;2024-01-15T21:12:54;0.60;99.90
31207;DHT22;17834;52.992;8.856;2024-01-15T21:15:19;0.60;99.90
31207;DHT22;17834;52.992;8.856;2024-01-15T21:17:45;0.60;99.90
31207;DHT22;17834;52.992;8.856;2024-01-15T21:20:11;0.60;99.90
31207;DHT22;17834;52.992;8.856;2024-01-15T21:22:37;0.70;99.90
31207;DHT22;17834;52.992;8.856;2024-01-15T21:25:03;0.70;99.90
31207;DHT22;17834;52.992;8.856;2024-01-15T21:27:29;0.80;99.90
31207;DHT22;17834;52.992;8.856;2024-01-15T21:29:54;0.80;99.90
31207;DHT22;17834;52.992;8.856;2024-01-15T21:32:20;0.80;99.90
31207;DHT22;17834;52.992;8.856;2024-01-15T21:34:46;0.80;99.90
31207;DHT22;17834;52.992;8.856;2024-01-15T21:37:12;0.80;99.90
31207;DHT22;17834;52.992;8.856;2024-01-15T21:39:38;0.80;99.90
31207;DHT22;17834;52.992;8.856;2024-01-15T21:42:04;0.80;99.90
31207;DHT22;17834;52.992;8.856;2024-01-15T21:44:29;0.80;99.90
31207;DHT22;17834;52.992;8.856;2024-01-15T21:46:55;0.80;99.90
31207;DHT22;17834;52.992;8.856;2024-01-15T21:49:20;0.80;99.90
31207;DHT22;17834;52.992;8.856;2024-01-15T21:51:46;0.80;99.90
31207;DHT22;17834;52.992;8.856;2024-01-15T21:54:11;0.80;99.90
31207;DHT22;17834;52.992;8.856;2024-01-15T21:56:37;0.90;99.90
31207;DHT22;17834;52.992;8.856;2024-01-15T21:59:03;0.90;99.90
31207;DHT22;17834;52.992;8.856;2024-01-15T22:01:28;1.00;99.90
31207;DHT22;17834;52.992;8.856;2024-01-15T22:03:54;1.00;99.90
31207;DHT22;17834;52.992;8.856;2024-01-15T22:06:20;1.10;99.90
31207;DHT22;17834;52.992;8.856;2024-01-15T22:08:45;1.10;99.90
31207;DHT22;17834;52.992;8.856;2024-01-15T22:11:11;1.10;99.90
31207;DHT22;17834;52.992;8.856;2024-01-15T22:13:38;1.20;99.90
31207;DHT22;17834;52.992;8.856;2024-01-15T22:16:04;1.20;99.90
31207;DHT22;17834;52.992;8.856;2024-01-15T22:18:30;1.20;99.90
31207;DHT22;17834;52.992;8.856;2024-01-15T22:20:56;1.20;99.90
31207;DHT22;17834;52.992;8.856;2024-01-15T22:23:22;1.20;99.90
31207;DHT22;17834;52.992;8.856;2024-01-15T22:25:48;1.20;99.90
31207;DHT22;17834;52.992;8.856;2024-01-15T22:28:13;1.20;99.90
31207;DHT22;17834;52.992;8.856;2024-01-15T22:30:39;1.20;99.90
31207;DHT22;17834;52.992;8.856;2024-01-15T22:33:05;1.20;99.90
31207;DHT22;17834;52.992;8.856;2024-01-15T22:35:30;1.20;99.90
31207;DHT22;17834;52.992;8.856;2024-01-15T22:37:56;1.20;99.90
31207;DHT22;17834;52.992;8.856;2024-01-15T22:40:21;1.20;99.90
31207;DHT22;17834;52.992;8.856;2024-01-15T22:42:47;1.10;99.90
31207;DHT22;17834;52.992;8.856;2024-01-15T22:45:13;1.10;99.90
31207;DHT22;17834;52.992;8.856;2024-01-15T22:47:38;1.00;99.90
31207;DHT22;17834;52.992;8.856;2024-01-15T22:50:04;1.10;99.90
31207;DHT22;17834;52.992;8.856;2024-01-15T22:52:30;1.10;99.90
31207;DHT22;17834;52.992;8.856;2024-01-15T22:54:55;1.10;99.90
31207;DHT22;17834;52.992;8.856;2024-01-15T22:57:21;1.20;99.90
31207;DHT22;17834;52.992;8.856;2024-01-15T22:59:47;1.20;99.90
31207;DHT22;17834;52.992;8.856;2024-01-15T23:02:12;1.20;99.90
31207;DHT22;17834;52.992;8.856;2024-01-15T23:04:38;1.30;99.90
31207;DHT22;17834;52.992;8.856;2024-01-15T23:07:06;1.30;99.90
31207;DHT22;17834;52.992;8.856;2024-01-15T23:09:32;1.30;99.90
31207;DHT22;17834;52.992;8.856;2024-01-15T23:11:58;1.30;99.90
31207;DHT22;17834;52.992;8.856;2024-01-15T23:14:23;1.20;99.90
31207;DHT22;17834;52.992;8.856;2024-01-15T23:16:49;1.30;99.90
31207;DHT22;17834;52.992;8.856;2024-01-15T23:19:14;1.30;99.90
31207;DHT22;17834;52.992;8.856;2024-01-15T23:21:40;1.30;99.90
31207;DHT22;17834;52.992;8.856;2024-01-15T23:24:05;1.30;99.90
31207;DHT22;17834;52.992;8.856;2024-01-15T23:26:31;1.30;99.90
31207;DHT22;17834;52.992;8.856;2024-01-15T23:28:57;1.30;99.90
31207;DHT22;17834;52.992;8.856;2024-01-15T23:31:23;1.30;99.90
31207;DHT22;17834;52.992;8.856;2024-01-15T23:33:48;1.20;99.90
31207;DHT22;17834;52.992;8.856;2024-01-15T23:36:14;1.20;99.90
31207;DHT22;17834;52.992;8.856;2024-01-15T23:38:39;1.10;99.90
31207;DHT22;17834;52.992;8.856;2024-01-15T23:43:32;1.00;99.90
31207;DHT22;17834;52.992;8.856;2024-01-15T23:45:58;1.00;99.90
31207;DHT22;17834;52.992;8.856;2024-01-15T23:48:24;0.90;99.90
31207;DHT22;17834;52.992;8.856;2024-01-15T23:50:50;0.90;99.90
31207;DHT22;17834;52.992;8.856;2024-01-15T23:53:15;0.80;99.90
31207;DHT22;17834;52.992;8.856;2024-01-15T23:55:41;0.70;99.90
31207;DHT22;17834;52.992;8.856;2024-01-15T23:58:07;0.70;99.90
